RYR30JT LEZL-LEPA
Flight info
| Callsign | RYR30JT |
|---|---|
| Flight time | 1h 5m |
| Altitude | 36000 |
| Route | BUDIT M445 LASPO/N0404F260 M871 GODOX |
| Aircraft | A320/M-SDE3FGHIRWY/LB1 |
Departure
| Time | 2026-05-07 15:19 |
|---|---|
| Airport | Seville Airport (LEZL) |
Arrival
| Time | 2026-05-07 16:25 |
|---|---|
| Airport | Palma de Mallorca Airport (LEPA) |
| Time | Latitude | Longitude | Altitude | Speed | Heading |
|---|---|---|---|---|---|
| 2026-05-07 14:55 | 37.42111 | -5.90247 | 106 ft | 0 kts | 40° |
| 2026-05-07 15:10 | 37.42112 | -5.90242 | 106 ft | 0 kts | 73° |
| 2026-05-07 15:11 | 37.42111 | -5.90240 | 106 ft | 0 kts | 90° |
| 2026-05-07 15:11 | 37.42103 | -5.90241 | 106 ft | 3 kts | 181° |
| 2026-05-07 15:11 | 37.42072 | -5.90246 | 106 ft | 5 kts | 191° |
| 2026-05-07 15:11 | 37.42050 | -5.90272 | 108 ft | 5 kts | 240° |
| 2026-05-07 15:12 | 37.42017 | -5.90305 | 109 ft | 7 kts | 194° |
| 2026-05-07 15:12 | 37.41981 | -5.90279 | 109 ft | 5 kts | 111° |
| 2026-05-07 15:12 | 37.41979 | -5.90233 | 111 ft | 7 kts | 91° |
| 2026-05-07 15:12 | 37.41980 | -5.90151 | 110 ft | 11 kts | 90° |
| 2026-05-07 15:13 | 37.41979 | -5.90050 | 108 ft | 12 kts | 90° |
| 2026-05-07 15:13 | 37.41980 | -5.89939 | 106 ft | 13 kts | 89° |
| 2026-05-07 15:13 | 37.41980 | -5.89826 | 105 ft | 13 kts | 89° |
| 2026-05-07 15:13 | 37.41981 | -5.89710 | 105 ft | 17 kts | 90° |
| 2026-05-07 15:14 | 37.41981 | -5.89522 | 102 ft | 25 kts | 89° |
| 2026-05-07 15:14 | 37.41982 | -5.89297 | 103 ft | 25 kts | 90° |
| 2026-05-07 15:14 | 37.41983 | -5.89088 | 105 ft | 23 kts | 89° |
| 2026-05-07 15:14 | 37.41983 | -5.88896 | 107 ft | 21 kts | 90° |
| 2026-05-07 15:15 | 37.41982 | -5.88701 | 111 ft | 22 kts | 90° |
| 2026-05-07 15:15 | 37.41986 | -5.88519 | 111 ft | 20 kts | 90° |
| 2026-05-07 15:15 | 37.41986 | -5.88347 | 110 ft | 19 kts | 90° |
| 2026-05-07 15:15 | 37.41986 | -5.88190 | 110 ft | 17 kts | 89° |
| 2026-05-07 15:16 | 37.41987 | -5.88032 | 106 ft | 18 kts | 89° |
| 2026-05-07 15:16 | 37.41987 | -5.87869 | 104 ft | 18 kts | 89° |
| 2026-05-07 15:16 | 37.41988 | -5.87715 | 104 ft | 17 kts | 90° |
| 2026-05-07 15:16 | 37.41988 | -5.87572 | 103 ft | 16 kts | 91° |
| 2026-05-07 15:17 | 37.41949 | -5.87454 | 102 ft | 9 kts | 134° |
| 2026-05-07 15:17 | 37.41909 | -5.87430 | 103 ft | 5 kts | 169° |
| 2026-05-07 15:17 | 37.41875 | -5.87428 | 104 ft | 5 kts | 179° |
| 2026-05-07 15:17 | 37.41851 | -5.87428 | 104 ft | 2 kts | 179° |
| 2026-05-07 15:18 | 37.41838 | -5.87427 | 105 ft | 5 kts | 179° |
| 2026-05-07 15:18 | 37.41803 | -5.87452 | 105 ft | 6 kts | 252° |
| 2026-05-07 15:18 | 37.41802 | -5.87483 | 106 ft | 2 kts | 269° |
| 2026-05-07 15:18 | 37.41797 | -5.87675 | 104 ft | 56 kts | 268° |
| 2026-05-07 15:19 | 37.41799 | -5.88453 | 111 ft | 120 kts | 269° |
| 2026-05-07 15:19 | 37.41761 | -5.89686 | 317 ft | 147 kts | 265° |
| 2026-05-07 15:19 | 37.41748 | -5.90923 | 1148 ft | 138 kts | 265° |
| 2026-05-07 15:19 | 37.41808 | -5.92124 | 1845 ft | 144 kts | 282° |
| 2026-05-07 15:20 | 37.42486 | -5.93200 | 2274 ft | 174 kts | 315° |
| 2026-05-07 15:20 | 37.43456 | -5.94259 | 2647 ft | 196 kts | 312° |
| 2026-05-07 15:20 | 37.44519 | -5.95489 | 3058 ft | 221 kts | 313° |
| 2026-05-07 15:20 | 37.45703 | -5.96878 | 3518 ft | 245 kts | 313° |
| 2026-05-07 15:21 | 37.47001 | -5.98403 | 4240 ft | 261 kts | 313° |
| 2026-05-07 15:21 | 37.48346 | -5.99981 | 5162 ft | 267 kts | 314° |
| 2026-05-07 15:21 | 37.49723 | -6.01599 | 6042 ft | 275 kts | 315° |
| 2026-05-07 15:21 | 37.51135 | -6.03260 | 6905 ft | 281 kts | 316° |
| 2026-05-07 15:22 | 37.52567 | -6.04942 | 7815 ft | 284 kts | 317° |
| 2026-05-07 15:22 | 37.54253 | -6.06284 | 8721 ft | 289 kts | 338° |
| 2026-05-07 15:22 | 37.56234 | -6.06784 | 9609 ft | 294 kts | 359° |
| 2026-05-07 15:22 | 37.58275 | -6.06346 | 10217 ft | 309 kts | 21° |
| 2026-05-07 15:23 | 37.60152 | -6.04847 | 10493 ft | 333 kts | 45° |
| 2026-05-07 15:23 | 37.61430 | -6.02364 | 11007 ft | 345 kts | 70° |
| 2026-05-07 15:23 | 37.62084 | -5.99429 | 11724 ft | 351 kts | 76° |
| 2026-05-07 15:23 | 37.62693 | -5.96429 | 12513 ft | 356 kts | 76° |
| 2026-05-07 15:24 | 37.63319 | -5.93336 | 13273 ft | 361 kts | 75° |
| 2026-05-07 15:24 | 37.63943 | -5.90252 | 13959 ft | 366 kts | 75° |
| 2026-05-07 15:24 | 37.64578 | -5.87108 | 14539 ft | 372 kts | 75° |
| 2026-05-07 15:24 | 37.65222 | -5.83916 | 15185 ft | 377 kts | 75° |
| 2026-05-07 15:25 | 37.65872 | -5.80686 | 15827 ft | 382 kts | 74° |
| 2026-05-07 15:25 | 37.66527 | -5.77413 | 16455 ft | 388 kts | 74° |
| 2026-05-07 15:25 | 37.67194 | -5.74086 | 17057 ft | 393 kts | 74° |
| 2026-05-07 15:25 | 37.67870 | -5.70723 | 17652 ft | 399 kts | 73° |
| 2026-05-07 15:26 | 37.68555 | -5.67303 | 18222 ft | 404 kts | 73° |
| 2026-05-07 15:26 | 37.69250 | -5.63837 | 18728 ft | 409 kts | 73° |
| 2026-05-07 15:26 | 37.69951 | -5.60340 | 19254 ft | 414 kts | 73° |
| 2026-05-07 15:26 | 37.70654 | -5.56804 | 19789 ft | 418 kts | 73° |
| 2026-05-07 15:27 | 37.71366 | -5.53214 | 20328 ft | 423 kts | 73° |
| 2026-05-07 15:27 | 37.72083 | -5.49596 | 20843 ft | 427 kts | 73° |
| 2026-05-07 15:27 | 37.72809 | -5.45934 | 21360 ft | 432 kts | 73° |
| 2026-05-07 15:27 | 37.73543 | -5.42230 | 21877 ft | 437 kts | 73° |
| 2026-05-07 15:28 | 37.74282 | -5.38496 | 22375 ft | 441 kts | 73° |
| 2026-05-07 15:28 | 37.75029 | -5.34713 | 22859 ft | 446 kts | 73° |
| 2026-05-07 15:28 | 37.75780 | -5.30892 | 23325 ft | 451 kts | 73° |
| 2026-05-07 15:28 | 37.76536 | -5.27022 | 23741 ft | 455 kts | 73° |
| 2026-05-07 15:29 | 37.77299 | -5.23121 | 24139 ft | 459 kts | 73° |
| 2026-05-07 15:29 | 37.78068 | -5.19189 | 24535 ft | 462 kts | 73° |
| 2026-05-07 15:29 | 37.78840 | -5.15241 | 24926 ft | 465 kts | 73° |
| 2026-05-07 15:29 | 37.79615 | -5.11267 | 25311 ft | 468 kts | 73° |
| 2026-05-07 15:30 | 37.80397 | -5.07249 | 25678 ft | 471 kts | 73° |
| 2026-05-07 15:30 | 37.81180 | -5.03211 | 26056 ft | 474 kts | 73° |
| 2026-05-07 15:30 | 37.81964 | -4.99154 | 26409 ft | 478 kts | 73° |
| 2026-05-07 15:30 | 37.82752 | -4.95049 | 26778 ft | 481 kts | 73° |
| 2026-05-07 15:31 | 37.83541 | -4.90922 | 27136 ft | 484 kts | 73° |
| 2026-05-07 15:31 | 37.84331 | -4.86770 | 27487 ft | 487 kts | 74° |
| 2026-05-07 15:31 | 37.84865 | -4.82521 | 27827 ft | 493 kts | 82° |
| 2026-05-07 15:31 | 37.85138 | -4.78118 | 28170 ft | 497 kts | 83° |
| 2026-05-07 15:32 | 37.85407 | -4.73752 | 28504 ft | 500 kts | 83° |
| 2026-05-07 15:32 | 37.85677 | -4.69409 | 28828 ft | 502 kts | 83° |
| 2026-05-07 15:32 | 37.85956 | -4.64930 | 29149 ft | 505 kts | 83° |
| 2026-05-07 15:32 | 37.86228 | -4.60495 | 29462 ft | 508 kts | 83° |
| 2026-05-07 15:33 | 37.86498 | -4.56023 | 29762 ft | 510 kts | 83° |
| 2026-05-07 15:33 | 37.86766 | -4.51542 | 30037 ft | 513 kts | 83° |
| 2026-05-07 15:33 | 37.87037 | -4.47022 | 30275 ft | 515 kts | 83° |
| 2026-05-07 15:33 | 37.87307 | -4.42490 | 30502 ft | 518 kts | 83° |
| 2026-05-07 15:34 | 37.87573 | -4.37945 | 30714 ft | 521 kts | 83° |
| 2026-05-07 15:34 | 37.87839 | -4.33360 | 30930 ft | 523 kts | 83° |
| 2026-05-07 15:34 | 37.88107 | -4.28765 | 31214 ft | 523 kts | 83° |
| 2026-05-07 15:34 | 37.88376 | -4.24167 | 31504 ft | 523 kts | 83° |
| 2026-05-07 15:35 | 37.88644 | -4.19572 | 31787 ft | 524 kts | 83° |
| 2026-05-07 15:35 | 37.88908 | -4.14972 | 32079 ft | 524 kts | 83° |
| 2026-05-07 15:35 | 37.89172 | -4.10360 | 32376 ft | 525 kts | 83° |
| 2026-05-07 15:35 | 37.89432 | -4.05749 | 32661 ft | 525 kts | 83° |
| 2026-05-07 15:36 | 37.89691 | -4.01132 | 32943 ft | 526 kts | 83° |
| 2026-05-07 15:36 | 37.89949 | -3.96521 | 33240 ft | 526 kts | 83° |
| 2026-05-07 15:36 | 37.90202 | -3.91900 | 33537 ft | 527 kts | 83° |
| 2026-05-07 15:36 | 37.90455 | -3.87263 | 33823 ft | 527 kts | 83° |
| 2026-05-07 15:37 | 37.90707 | -3.82640 | 34098 ft | 527 kts | 83° |
| 2026-05-07 15:37 | 37.90956 | -3.77997 | 34372 ft | 527 kts | 83° |
| 2026-05-07 15:37 | 37.91199 | -3.73371 | 34660 ft | 526 kts | 83° |
| 2026-05-07 15:37 | 37.91442 | -3.68753 | 34940 ft | 525 kts | 83° |
| 2026-05-07 15:38 | 37.91687 | -3.64090 | 35223 ft | 524 kts | 84° |
| 2026-05-07 15:38 | 37.91926 | -3.59545 | 35485 ft | 523 kts | 84° |
| 2026-05-07 15:38 | 37.92175 | -3.54882 | 35745 ft | 523 kts | 84° |
| 2026-05-07 15:38 | 37.92420 | -3.50291 | 35902 ft | 522 kts | 84° |
| 2026-05-07 15:39 | 37.92903 | -3.41157 | 35930 ft | 519 kts | 84° |
| 2026-05-07 15:39 | 37.93371 | -3.32030 | 35935 ft | 519 kts | 84° |
| 2026-05-07 15:40 | 37.93832 | -3.22910 | 35941 ft | 519 kts | 84° |
| 2026-05-07 15:40 | 37.94289 | -3.13806 | 35939 ft | 518 kts | 84° |
| 2026-05-07 15:41 | 37.94665 | -3.06222 | 35954 ft | 518 kts | 84° |
| 2026-05-07 15:41 | 37.95105 | -2.97102 | 35962 ft | 519 kts | 84° |
| 2026-05-07 15:42 | 37.95540 | -2.87990 | 35963 ft | 519 kts | 84° |
| 2026-05-07 15:42 | 37.95964 | -2.78882 | 35967 ft | 518 kts | 84° |
| 2026-05-07 15:43 | 37.96383 | -2.69684 | 35970 ft | 518 kts | 84° |
| 2026-05-07 15:43 | 37.96820 | -2.60571 | 35975 ft | 517 kts | 81° |
| 2026-05-07 15:44 | 37.98480 | -2.51897 | 35983 ft | 506 kts | 62° |
| 2026-05-07 15:44 | 38.01989 | -2.44272 | 35981 ft | 490 kts | 44° |
| 2026-05-07 15:45 | 38.06571 | -2.37998 | 35989 ft | 483 kts | 39° |
| 2026-05-07 15:45 | 38.11200 | -2.31794 | 35994 ft | 484 kts | 39° |
| 2026-05-07 15:46 | 38.18117 | -2.22478 | 36003 ft | 483 kts | 40° |
| 2026-05-07 15:47 | 38.22560 | -2.16041 | 35997 ft | 487 kts | 45° |
| 2026-05-07 15:47 | 38.26756 | -2.09280 | 35995 ft | 486 kts | 45° |
| 2026-05-07 15:48 | 38.30938 | -2.02510 | 36001 ft | 486 kts | 46° |
| 2026-05-07 15:48 | 38.35119 | -1.95726 | 35999 ft | 487 kts | 46° |
| 2026-05-07 15:49 | 38.39303 | -1.88952 | 35999 ft | 487 kts | 46° |
| 2026-05-07 15:49 | 38.43485 | -1.82155 | 35997 ft | 487 kts | 46° |
| 2026-05-07 15:50 | 38.47656 | -1.75347 | 35991 ft | 488 kts | 47° |
| 2026-05-07 15:50 | 38.51838 | -1.68518 | 35990 ft | 488 kts | 47° |
| 2026-05-07 15:51 | 38.56007 | -1.61686 | 35990 ft | 489 kts | 47° |
| 2026-05-07 15:51 | 38.60192 | -1.54820 | 35991 ft | 489 kts | 47° |
| 2026-05-07 15:52 | 38.64403 | -1.47911 | 35993 ft | 490 kts | 48° |
| 2026-05-07 15:52 | 38.68584 | -1.41018 | 35992 ft | 490 kts | 48° |
| 2026-05-07 15:53 | 38.72757 | -1.34110 | 35992 ft | 491 kts | 49° |
| 2026-05-07 15:53 | 38.76944 | -1.27184 | 35976 ft | 492 kts | 49° |
| 2026-05-07 15:54 | 38.81127 | -1.20259 | 35984 ft | 492 kts | 49° |
| 2026-05-07 15:54 | 38.85316 | -1.13315 | 35977 ft | 492 kts | 49° |
| 2026-05-07 15:55 | 38.89502 | -1.06351 | 35986 ft | 492 kts | 49° |
| 2026-05-07 15:55 | 38.93683 | -0.99376 | 35994 ft | 493 kts | 50° |
| 2026-05-07 15:56 | 38.97849 | -0.92398 | 35977 ft | 492 kts | 50° |
| 2026-05-07 15:56 | 39.02017 | -0.85415 | 35992 ft | 492 kts | 50° |
| 2026-05-07 15:57 | 39.06223 | -0.78464 | 35983 ft | 491 kts | 46° |
| 2026-05-07 15:57 | 39.11239 | -0.72606 | 35987 ft | 486 kts | 36° |
| 2026-05-07 15:58 | 39.16459 | -0.67059 | 35981 ft | 486 kts | 37° |
| 2026-05-07 15:58 | 39.21704 | -0.61449 | 35968 ft | 487 kts | 38° |
| 2026-05-07 15:58 | 39.24062 | -0.58394 | 35966 ft | 489 kts | 49° |
| 2026-05-07 15:59 | 39.26054 | -0.54760 | 35965 ft | 491 kts | 59° |
| 2026-05-07 15:59 | 39.27540 | -0.50806 | 35959 ft | 491 kts | 70° |
| 2026-05-07 15:59 | 39.28506 | -0.46590 | 35953 ft | 489 kts | 81° |
| 2026-05-07 16:00 | 39.29136 | -0.37895 | 35958 ft | 487 kts | 88° |
| 2026-05-07 16:00 | 39.29595 | -0.29186 | 35957 ft | 487 kts | 88° |
| 2026-05-07 16:01 | 39.30064 | -0.20458 | 35958 ft | 487 kts | 89° |
| 2026-05-07 16:01 | 39.30514 | -0.11756 | 35960 ft | 486 kts | 89° |
| 2026-05-07 16:02 | 39.30950 | -0.03045 | 35962 ft | 486 kts | 89° |
| 2026-05-07 16:02 | 39.31381 | 0.05656 | 35962 ft | 485 kts | 89° |
| 2026-05-07 16:03 | 39.31804 | 0.14345 | 35961 ft | 485 kts | 90° |
| 2026-05-07 16:03 | 39.32223 | 0.23040 | 35732 ft | 483 kts | 90° |
| 2026-05-07 16:03 | 39.32430 | 0.27358 | 35492 ft | 482 kts | 90° |
| 2026-05-07 16:04 | 39.32635 | 0.31668 | 35241 ft | 481 kts | 90° |
| 2026-05-07 16:04 | 39.32837 | 0.35979 | 34845 ft | 480 kts | 90° |
| 2026-05-07 16:04 | 39.33041 | 0.40321 | 33797 ft | 487 kts | 91° |
| 2026-05-07 16:04 | 39.33246 | 0.44745 | 32868 ft | 486 kts | 91° |
| 2026-05-07 16:05 | 39.33447 | 0.49049 | 32326 ft | 478 kts | 91° |
| 2026-05-07 16:05 | 39.33646 | 0.53308 | 31705 ft | 472 kts | 92° |
| 2026-05-07 16:05 | 39.33836 | 0.57523 | 31108 ft | 466 kts | 92° |
| 2026-05-07 16:05 | 39.34020 | 0.61683 | 30505 ft | 461 kts | 93° |
| 2026-05-07 16:06 | 39.34201 | 0.65793 | 29906 ft | 456 kts | 93° |
| 2026-05-07 16:06 | 39.34380 | 0.69862 | 29274 ft | 450 kts | 93° |
| 2026-05-07 16:06 | 39.34552 | 0.73871 | 28712 ft | 444 kts | 93° |
| 2026-05-07 16:06 | 39.34725 | 0.77835 | 28142 ft | 439 kts | 93° |
| 2026-05-07 16:07 | 39.34893 | 0.81741 | 27585 ft | 434 kts | 93° |
| 2026-05-07 16:07 | 39.35057 | 0.85608 | 27037 ft | 429 kts | 93° |
| 2026-05-07 16:07 | 39.35218 | 0.89432 | 26499 ft | 424 kts | 93° |
| 2026-05-07 16:07 | 39.35376 | 0.93230 | 25967 ft | 420 kts | 92° |
| 2026-05-07 16:08 | 39.35532 | 0.96979 | 25453 ft | 416 kts | 92° |
| 2026-05-07 16:08 | 39.35685 | 1.00684 | 24950 ft | 412 kts | 92° |
| 2026-05-07 16:08 | 39.35835 | 1.04376 | 24448 ft | 409 kts | 92° |
| 2026-05-07 16:08 | 39.35983 | 1.08032 | 23960 ft | 406 kts | 91° |
| 2026-05-07 16:09 | 39.36129 | 1.11663 | 23462 ft | 403 kts | 91° |
| 2026-05-07 16:09 | 39.36271 | 1.15264 | 22928 ft | 400 kts | 91° |
| 2026-05-07 16:09 | 39.36411 | 1.18834 | 22450 ft | 396 kts | 91° |
| 2026-05-07 16:09 | 39.36549 | 1.22372 | 21962 ft | 392 kts | 90° |
| 2026-05-07 16:10 | 39.36688 | 1.25884 | 21469 ft | 389 kts | 90° |
| 2026-05-07 16:10 | 39.36824 | 1.29362 | 20992 ft | 387 kts | 90° |
| 2026-05-07 16:10 | 39.36955 | 1.32821 | 20479 ft | 385 kts | 90° |
| 2026-05-07 16:10 | 39.37085 | 1.36274 | 19983 ft | 383 kts | 90° |
| 2026-05-07 16:11 | 39.37216 | 1.39742 | 19474 ft | 382 kts | 90° |
| 2026-05-07 16:11 | 39.37525 | 1.43110 | 18974 ft | 383 kts | 82° |
| 2026-05-07 16:11 | 39.37980 | 1.46540 | 18456 ft | 382 kts | 82° |
| 2026-05-07 16:11 | 39.38424 | 1.49876 | 17935 ft | 381 kts | 82° |
| 2026-05-07 16:12 | 39.38865 | 1.53302 | 17153 ft | 384 kts | 83° |
| 2026-05-07 16:12 | 39.39212 | 1.56736 | 16566 ft | 384 kts | 85° |
| 2026-05-07 16:12 | 39.39488 | 1.60133 | 16211 ft | 375 kts | 86° |
| 2026-05-07 16:12 | 39.39732 | 1.63478 | 15705 ft | 373 kts | 86° |
| 2026-05-07 16:13 | 39.39971 | 1.66803 | 15237 ft | 369 kts | 86° |
| 2026-05-07 16:13 | 39.40218 | 1.70085 | 14783 ft | 366 kts | 86° |
| 2026-05-07 16:13 | 39.40473 | 1.73345 | 14326 ft | 362 kts | 86° |
| 2026-05-07 16:13 | 39.40642 | 1.75478 | 14027 ft | 360 kts | 86° |
| 2026-05-07 16:14 | 39.40902 | 1.78685 | 13550 ft | 357 kts | 85° |
| 2026-05-07 16:14 | 39.41165 | 1.81862 | 13044 ft | 354 kts | 85° |
| 2026-05-07 16:14 | 39.41426 | 1.84997 | 12465 ft | 352 kts | 85° |
| 2026-05-07 16:14 | 39.41690 | 1.88193 | 11642 ft | 358 kts | 85° |
| 2026-05-07 16:15 | 39.41944 | 1.91325 | 11443 ft | 344 kts | 85° |
| 2026-05-07 16:15 | 39.42188 | 1.94362 | 10956 ft | 340 kts | 85° |
| 2026-05-07 16:15 | 39.42430 | 1.97394 | 10456 ft | 337 kts | 84° |
| 2026-05-07 16:15 | 39.42671 | 2.00421 | 10185 ft | 327 kts | 84° |
| 2026-05-07 16:16 | 39.42897 | 2.03242 | 10067 ft | 313 kts | 84° |
| 2026-05-07 16:16 | 39.43115 | 2.05969 | 9946 ft | 301 kts | 84° |
| 2026-05-07 16:16 | 39.43329 | 2.08651 | 9746 ft | 292 kts | 84° |
| 2026-05-07 16:16 | 39.43533 | 2.11212 | 9359 ft | 289 kts | 84° |
| 2026-05-07 16:17 | 39.43741 | 2.13827 | 8962 ft | 287 kts | 84° |
| 2026-05-07 16:17 | 39.43941 | 2.16390 | 8564 ft | 285 kts | 84° |
| 2026-05-07 16:17 | 39.44136 | 2.18923 | 8173 ft | 283 kts | 84° |
| 2026-05-07 16:17 | 39.44330 | 2.21444 | 7785 ft | 280 kts | 84° |
| 2026-05-07 16:18 | 39.44524 | 2.23932 | 7311 ft | 275 kts | 84° |
| 2026-05-07 16:18 | 39.44714 | 2.26377 | 6627 ft | 273 kts | 84° |
| 2026-05-07 16:18 | 39.44904 | 2.28807 | 5932 ft | 270 kts | 84° |
| 2026-05-07 16:18 | 39.45093 | 2.31227 | 5438 ft | 270 kts | 84° |
| 2026-05-07 16:19 | 39.45279 | 2.33640 | 5029 ft | 269 kts | 84° |
| 2026-05-07 16:19 | 39.45458 | 2.35973 | 4982 ft | 252 kts | 84° |
| 2026-05-07 16:19 | 39.45623 | 2.38148 | 4986 ft | 234 kts | 84° |
| 2026-05-07 16:19 | 39.45775 | 2.40163 | 4988 ft | 217 kts | 84° |
| 2026-05-07 16:20 | 39.45918 | 2.42037 | 4940 ft | 203 kts | 84° |
| 2026-05-07 16:20 | 39.46058 | 2.43871 | 4625 ft | 204 kts | 84° |
| 2026-05-07 16:20 | 39.46196 | 2.45696 | 4323 ft | 205 kts | 84° |
| 2026-05-07 16:20 | 39.46336 | 2.47551 | 3977 ft | 210 kts | 84° |
| 2026-05-07 16:21 | 39.46481 | 2.49462 | 3689 ft | 215 kts | 85° |
| 2026-05-07 16:21 | 39.46627 | 2.51412 | 3417 ft | 219 kts | 84° |
| 2026-05-07 16:21 | 39.46776 | 2.53383 | 3144 ft | 221 kts | 84° |
| 2026-05-07 16:21 | 39.47221 | 2.55297 | 2834 ft | 221 kts | 61° |
| 2026-05-07 16:22 | 39.48020 | 2.56989 | 2556 ft | 219 kts | 59° |
| 2026-05-07 16:22 | 39.48830 | 2.58675 | 2263 ft | 222 kts | 59° |
| 2026-05-07 16:22 | 39.49645 | 2.60386 | 1955 ft | 224 kts | 59° |
| 2026-05-07 16:22 | 39.50442 | 2.62062 | 1662 ft | 210 kts | 59° |
| 2026-05-07 16:23 | 39.51180 | 2.63613 | 1400 ft | 196 kts | 59° |
| 2026-05-07 16:23 | 39.51875 | 2.65069 | 1220 ft | 182 kts | 60° |
| 2026-05-07 16:23 | 39.52514 | 2.66410 | 979 ft | 168 kts | 60° |
| 2026-05-07 16:23 | 39.53093 | 2.67639 | 734 ft | 155 kts | 60° |
| 2026-05-07 16:24 | 39.53639 | 2.68801 | 416 ft | 148 kts | 58° |
| 2026-05-07 16:24 | 39.54150 | 2.69862 | 241 ft | 132 kts | 60° |
| 2026-05-07 16:24 | 39.54614 | 2.70846 | 99 ft | 127 kts | 60° |
| 2026-05-07 16:24 | 39.55042 | 2.71765 | 38 ft | 103 kts | 59° |
| 2026-05-07 16:25 | 39.55327 | 2.72365 | 38 ft | 53 kts | 57° |
| 2026-05-07 16:25 | 39.55445 | 2.72612 | 38 ft | 13 kts | 59° |
| 2026-05-07 16:25 | 39.55482 | 2.72722 | 38 ft | 14 kts | 71° |
| 2026-05-07 16:25 | 39.55493 | 2.72864 | 38 ft | 17 kts | 89° |
| 2026-05-07 16:26 | 39.55497 | 2.73015 | 38 ft | 17 kts | 86° |
| 2026-05-07 16:26 | 39.55501 | 2.73117 | 38 ft | 0 kts | 85° |
| 2026-05-07 16:27 | 39.55501 | 2.73118 | 38 ft | 1 kts | 85° |
| 2026-05-07 16:27 | 39.55504 | 2.73156 | 38 ft | 8 kts | 83° |
| 2026-05-07 16:27 | 39.55531 | 2.73239 | 38 ft | 10 kts | 59° |
| 2026-05-07 16:28 | 39.55566 | 2.73313 | 38 ft | 9 kts | 58° |
| 2026-05-07 16:28 | 39.55600 | 2.73386 | 38 ft | 11 kts | 58° |
| 2026-05-07 16:28 | 39.55629 | 2.73474 | 38 ft | 10 kts | 98° |
| 2026-05-07 16:28 | 39.55579 | 2.73533 | 38 ft | 10 kts | 148° |
| 2026-05-07 16:29 | 39.55523 | 2.73578 | 38 ft | 10 kts | 149° |
| 2026-05-07 16:29 | 39.55453 | 2.73633 | 38 ft | 14 kts | 148° |
| 2026-05-07 16:29 | 39.55361 | 2.73705 | 38 ft | 16 kts | 148° |
| 2026-05-07 16:29 | 39.55268 | 2.73779 | 36 ft | 16 kts | 149° |
| 2026-05-07 16:30 | 39.55171 | 2.73855 | 38 ft | 17 kts | 148° |
| 2026-05-07 16:30 | 39.55065 | 2.73938 | 38 ft | 19 kts | 148° |
| 2026-05-07 16:30 | 39.54954 | 2.74026 | 38 ft | 18 kts | 150° |
| 2026-05-07 16:30 | 39.54846 | 2.74111 | 38 ft | 18 kts | 149° |
| 2026-05-07 16:31 | 39.54762 | 2.74071 | 38 ft | 13 kts | 238° |
| 2026-05-07 16:31 | 39.54723 | 2.73987 | 38 ft | 9 kts | 238° |
| 2026-05-07 16:31 | 39.54696 | 2.73930 | 38 ft | 7 kts | 238° |
| 2026-05-07 16:31 | 39.54664 | 2.73863 | 38 ft | 12 kts | 238° |
| 2026-05-07 16:32 | 39.54608 | 2.73745 | 38 ft | 15 kts | 238° |
| 2026-05-07 16:32 | 39.54592 | 2.73651 | 38 ft | 9 kts | 299° |
| 2026-05-07 16:32 | 39.54617 | 2.73596 | 38 ft | 5 kts | 284° |
| 2026-05-07 16:32 | 39.54625 | 2.73567 | 37 ft | 2 kts | 291° |
| 2026-05-07 16:33 | 39.54642 | 2.73542 | 36 ft | 5 kts | 322° |
| 2026-05-07 16:33 | 39.54659 | 2.73489 | 38 ft | 8 kts | 267° |
| 2026-05-07 16:33 | 39.54652 | 2.73437 | 38 ft | 4 kts | 259° |
| 2026-05-07 16:33 | 39.54650 | 2.73423 | 38 ft | 0 kts | 259° |